Hoss — WDC6733 — position and weather

sailwx.info

Track history (hours):
 
Tides and Currents Weather Stations Pressure Air Temp Water Temp Dewpoint Dewpoint Depression Visibility Wind Speed Wind Dir Waves Ship Positions

Hoss

Owner: Intracoastal Marine Inc., Coinjock, NC. More information available from US FCC via Universal Licensing System and Coast Guard Vessel Documentation Center.

Last reported at 2018-Jun-22 17:05 UTC. Time now 2018-Jun-25 00:43 UTC.
Position N 36°48' W 076°17'.

Length 29 m; draft 3 m.

Type: Tug. MMSI: 367060510.

Date/timePositionNaut miles runAvg speedWind from/ knotsBaromVisibWave heightAir tempDewpointWater temp
2018-Jun-22 17:05N 36°48' W 076°17'0 0.0
2018-Jun-22 17:01N 36°48' W 076°17'2 3.9
2018-Jun-22 16:30N 36°50' W 076°17'1 1.4
2018-Jun-22 15:51N 36°50' W 076°16'2 4.5
2018-Jun-22 15:30N 36°50' W 076°18'2 3.5
2018-Jun-22 15:01N 36°48' W 076°18'3 5.1
2018-Jun-22 14:30N 36°50' W 076°16'1 2.5
2018-Jun-22 14:00N 36°50' W 076°15'1 1.9
2018-Jun-22 13:27N 36°50' W 076°16'2 4.8
2018-Jun-22 13:00N 36°48' W 076°17'0 0.1
2018-Jun-22 12:31N 36°48' W 076°17'0 0.0
2018-Jun-22 12:00N 36°48' W 076°17'0 0.0
2018-Jun-22 11:30N 36°48' W 076°17'0 0.0
2018-Jun-22 11:01N 36°48' W 076°17'0 0.0
2018-Jun-22 10:30N 36°48' W 076°17'0 0.0
2018-Jun-22 10:01N 36°48' W 076°17'0 0.0
2018-Jun-22 09:31N 36°48' W 076°17'0 0.0
2018-Jun-22 09:00N 36°48' W 076°17'0 0.0
2018-Jun-22 08:30N 36°48' W 076°17'0 0.0
2018-Jun-22 08:01N 36°48' W 076°17'0 0.0
2018-Jun-22 07:30N 36°48' W 076°17'0 0.0
2018-Jun-22 07:00N 36°48' W 076°17'0 0.0
2018-Jun-22 06:30N 36°48' W 076°17'0 0.0
2018-Jun-22 06:01N 36°48' W 076°17'0 0.0
2018-Jun-22 05:30N 36°48' W 076°17'0 0.0
2018-Jun-22 05:01N 36°48' W 076°17'0 0.0
2018-Jun-22 04:31N 36°48' W 076°17'0 0.0
2018-Jun-22 04:00N 36°48' W 076°17'0 0.0
2018-Jun-22 03:30N 36°48' W 076°17'0 0.0
2018-Jun-22 03:01N 36°48' W 076°17'0 0.0
2018-Jun-22 02:30N 36°48' W 076°17'0 0.0
2018-Jun-22 02:01N 36°48' W 076°17'0 0.0
2018-Jun-22 01:31N 36°48' W 076°17'0 0.0
2018-Jun-22 01:01N 36°48' W 076°17'0 0.0
2018-Jun-22 00:30N 36°48' W 076°17'0 0.0
2018-Jun-22 00:01N 36°48' W 076°17'0 0.0
2018-Jun-21 23:30N 36°48' W 076°17'0 0.0
2018-Jun-21 23:00N 36°48' W 076°17'0 0.0
2018-Jun-21 22:31N 36°48' W 076°17'0 0.0
2018-Jun-21 22:00N 36°48' W 076°17'0 0.0
2018-Jun-21 21:31N 36°48' W 076°17'1 1.8
2018-Jun-21 21:00N 36°48' W 076°18'1 2.8
2018-Jun-21 20:30N 36°49' W 076°17'3 5.3
2018-Jun-21 20:00N 36°52' W 076°19'2 3.4
2018-Jun-21 19:30N 36°52' W 076°21'0 0.1
2018-Jun-21 19:01N 36°52' W 076°21'0 0.1
2018-Jun-21 18:31N 36°52' W 076°21'0 0.1
2018-Jun-21 18:00N 36°52' W 076°21'0 0.1
2018-Jun-21 17:30N 36°52' W 076°21'0 0.1
2018-Jun-21 17:00N 36°52' W 076°21'0 0.2
2018-Jun-21 16:31N 36°52' W 076°21'1 1.2
2018-Jun-21 15:58N 36°53' W 076°20'3 0.1
2018-Jun-20 05:58N 36°56' W 076°20'3 4.6
2018-Jun-20 05:24N 36°53' W 076°20'1 3.4
2018-Jun-20 05:01N 36°52' W 076°21'0 0.1
2018-Jun-20 04:30N 36°52' W 076°21'0 0.0
2018-Jun-20 04:01N 36°52' W 076°21'0 0.0
2018-Jun-20 03:31N 36°52' W 076°21'0 0.0
2018-Jun-20 03:00N 36°52' W 076°21'0 0.0
2018-Jun-20 02:30N 36°52' W 076°21'0 0.0
2018-Jun-20 02:01N 36°52' W 076°21'0 0.0
2018-Jun-20 01:30N 36°52' W 076°21'0 0.0
2018-Jun-20 01:00N 36°52' W 076°21'0 0.0
2018-Jun-20 00:30N 36°52' W 076°21'0 0.0
2018-Jun-20 00:01N 36°52' W 076°21'0 0.0
2018-Jun-19 23:30N 36°52' W 076°21'0 0.7
2018-Jun-19 23:00N 36°53' W 076°21'3 6.5
2018-Jun-19 22:31N 36°50' W 076°18'2 4.0
2018-Jun-19 22:00N 36°48' W 076°17'1 1.3
2018-Jun-19 21:31N 36°48' W 076°18'1 1.7
2018-Jun-19 21:01N 36°48' W 076°17'  
2018-Jun-14 17:45N 36°48' W 076°17'0 0.0
2018-Jun-14 17:31N 36°48' W 076°17'2 3.4
2018-Jun-14 17:00N 36°50' W 076°18'2 3.8
2018-Jun-14 16:25N 36°50' W 076°15'1 1.8
2018-Jun-14 15:52N 36°50' W 076°16'1 3.6
2018-Jun-14 15:30N 36°50' W 076°18'3 7.0
2018-Jun-14 15:00N 36°47' W 076°18'0 0.1
2018-Jun-14 14:30N 36°47' W 076°18'0 0.0
2018-Jun-14 14:00N 36°47' W 076°18'0 0.0
2018-Jun-14 13:30N 36°47' W 076°18'0 0.0
2018-Jun-14 13:00N 36°47' W 076°18'0 0.0
2018-Jun-14 12:30N 36°47' W 076°18'0 0.0
2018-Jun-14 12:01N 36°47' W 076°18'3 5.1
2018-Jun-14 11:30N 36°49' W 076°17'2 4.3
2018-Jun-14 11:00N 36°50' W 076°15'0 0.9
2018-Jun-14 10:30N 36°50' W 076°15'0 0.3
2018-Jun-14 10:00N 36°50' W 076°15'1 2.5
2018-Jun-14 09:29N 36°50' W 076°17'0 0.4
2018-Jun-14 08:59N 36°50' W 076°17'2 4.0
2018-Jun-14 08:30N 36°48' W 076°17'0 0.0
2018-Jun-13 20:17N 36°48' W 076°17'2 5.6
2018-Jun-13 20:00N 36°50' W 076°18'4 4.8
2018-Jun-13 19:14N 36°53' W 076°20'3 0.3
2018-Jun-13 10:25N 36°56' W 076°20'4 5.5
2018-Jun-13 09:45N 36°52' W 076°20'2 6.9
2018-Jun-13 09:29N 36°51' W 076°18'3 4.3
2018-Jun-13 08:52N 36°50' W 076°15'2 6.2
2018-Jun-13 08:30N 36°50' W 076°18'  
Track history (hours):
 
Tides and Currents Weather Stations Pressure Air Temp Water Temp Dewpoint Dewpoint Depression Visibility Wind Speed Wind Dir Waves Ship Positions

Hoss

Owner: Intracoastal Marine Inc., Coinjock, NC. More information available from US FCC via Universal Licensing System and Coast Guard Vessel Documentation Center.

Last reported at 2018-Jun-22 17:05 UTC. Time now 2018-Jun-25 00:43 UTC.
Position N 36°48' W 076°17'.

Length 29 m; draft 3 m.

Type: Tug. MMSI: 367060510.

Date/timePositionNaut miles runAvg speedWind from/ knotsBaromVisibWave heightAir tempDewpointWater temp
2018-Jun-22 17:05N 36°48' W 076°17'0 0.0
2018-Jun-22 17:01N 36°48' W 076°17'2 3.9
2018-Jun-22 16:30N 36°50' W 076°17'1 1.4
2018-Jun-22 15:51N 36°50' W 076°16'2 4.5
2018-Jun-22 15:30N 36°50' W 076°18'2 3.5
2018-Jun-22 15:01N 36°48' W 076°18'3 5.1
2018-Jun-22 14:30N 36°50' W 076°16'1 2.5
2018-Jun-22 14:00N 36°50' W 076°15'1 1.9
2018-Jun-22 13:27N 36°50' W 076°16'2 4.8
2018-Jun-22 13:00N 36°48' W 076°17'0 0.1
2018-Jun-22 12:31N 36°48' W 076°17'0 0.0
2018-Jun-22 12:00N 36°48' W 076°17'0 0.0
2018-Jun-22 11:30N 36°48' W 076°17'0 0.0
2018-Jun-22 11:01N 36°48' W 076°17'0 0.0
2018-Jun-22 10:30N 36°48' W 076°17'0 0.0
2018-Jun-22 10:01N 36°48' W 076°17'0 0.0
2018-Jun-22 09:31N 36°48' W 076°17'0 0.0
2018-Jun-22 09:00N 36°48' W 076°17'0 0.0
2018-Jun-22 08:30N 36°48' W 076°17'0 0.0
2018-Jun-22 08:01N 36°48' W 076°17'0 0.0
2018-Jun-22 07:30N 36°48' W 076°17'0 0.0
2018-Jun-22 07:00N 36°48' W 076°17'0 0.0
2018-Jun-22 06:30N 36°48' W 076°17'0 0.0
2018-Jun-22 06:01N 36°48' W 076°17'0 0.0
2018-Jun-22 05:30N 36°48' W 076°17'0 0.0
2018-Jun-22 05:01N 36°48' W 076°17'0 0.0
2018-Jun-22 04:31N 36°48' W 076°17'0 0.0
2018-Jun-22 04:00N 36°48' W 076°17'0 0.0
2018-Jun-22 03:30N 36°48' W 076°17'0 0.0
2018-Jun-22 03:01N 36°48' W 076°17'0 0.0
2018-Jun-22 02:30N 36°48' W 076°17'0 0.0
2018-Jun-22 02:01N 36°48' W 076°17'0 0.0
2018-Jun-22 01:31N 36°48' W 076°17'0 0.0
2018-Jun-22 01:01N 36°48' W 076°17'0 0.0
2018-Jun-22 00:30N 36°48' W 076°17'0 0.0
2018-Jun-22 00:01N 36°48' W 076°17'0 0.0
2018-Jun-21 23:30N 36°48' W 076°17'0 0.0
2018-Jun-21 23:00N 36°48' W 076°17'0 0.0
2018-Jun-21 22:31N 36°48' W 076°17'0 0.0
2018-Jun-21 22:00N 36°48' W 076°17'0 0.0
2018-Jun-21 21:31N 36°48' W 076°17'1 1.8
2018-Jun-21 21:00N 36°48' W 076°18'1 2.8
2018-Jun-21 20:30N 36°49' W 076°17'3 5.3
2018-Jun-21 20:00N 36°52' W 076°19'2 3.4
2018-Jun-21 19:30N 36°52' W 076°21'0 0.1
2018-Jun-21 19:01N 36°52' W 076°21'0 0.1
2018-Jun-21 18:31N 36°52' W 076°21'0 0.1
2018-Jun-21 18:00N 36°52' W 076°21'0 0.1
2018-Jun-21 17:30N 36°52' W 076°21'0 0.1
2018-Jun-21 17:00N 36°52' W 076°21'0 0.2
2018-Jun-21 16:31N 36°52' W 076°21'1 1.2
2018-Jun-21 15:58N 36°53' W 076°20'3 0.1
2018-Jun-20 05:58N 36°56' W 076°20'3 4.6
2018-Jun-20 05:24N 36°53' W 076°20'1 3.4
2018-Jun-20 05:01N 36°52' W 076°21'0 0.1
2018-Jun-20 04:30N 36°52' W 076°21'0 0.0
2018-Jun-20 04:01N 36°52' W 076°21'0 0.0
2018-Jun-20 03:31N 36°52' W 076°21'0 0.0
2018-Jun-20 03:00N 36°52' W 076°21'0 0.0
2018-Jun-20 02:30N 36°52' W 076°21'0 0.0
2018-Jun-20 02:01N 36°52' W 076°21'0 0.0
2018-Jun-20 01:30N 36°52' W 076°21'0 0.0
2018-Jun-20 01:00N 36°52' W 076°21'0 0.0
2018-Jun-20 00:30N 36°52' W 076°21'0 0.0
2018-Jun-20 00:01N 36°52' W 076°21'0 0.0
2018-Jun-19 23:30N 36°52' W 076°21'0 0.7
2018-Jun-19 23:00N 36°53' W 076°21'3 6.5
2018-Jun-19 22:31N 36°50' W 076°18'2 4.0
2018-Jun-19 22:00N 36°48' W 076°17'1 1.3
2018-Jun-19 21:31N 36°48' W 076°18'1 1.7
2018-Jun-19 21:01N 36°48' W 076°17'  
2018-Jun-14 17:45N 36°48' W 076°17'0 0.0
2018-Jun-14 17:31N 36°48' W 076°17'2 3.4
2018-Jun-14 17:00N 36°50' W 076°18'2 3.8
2018-Jun-14 16:25N 36°50' W 076°15'1 1.8
2018-Jun-14 15:52N 36°50' W 076°16'1 3.6
2018-Jun-14 15:30N 36°50' W 076°18'3 7.0
2018-Jun-14 15:00N 36°47' W 076°18'0 0.1
2018-Jun-14 14:30N 36°47' W 076°18'0 0.0
2018-Jun-14 14:00N 36°47' W 076°18'0 0.0
2018-Jun-14 13:30N 36°47' W 076°18'0 0.0
2018-Jun-14 13:00N 36°47' W 076°18'0 0.0
2018-Jun-14 12:30N 36°47' W 076°18'0 0.0
2018-Jun-14 12:01N 36°47' W 076°18'3 5.1
2018-Jun-14 11:30N 36°49' W 076°17'2 4.3
2018-Jun-14 11:00N 36°50' W 076°15'0 0.9
2018-Jun-14 10:30N 36°50' W 076°15'0 0.3
2018-Jun-14 10:00N 36°50' W 076°15'1 2.5
2018-Jun-14 09:29N 36°50' W 076°17'0 0.4
2018-Jun-14 08:59N 36°50' W 076°17'2 4.0
2018-Jun-14 08:30N 36°48' W 076°17'0 0.0
2018-Jun-13 20:17N 36°48' W 076°17'2 5.6
2018-Jun-13 20:00N 36°50' W 076°18'4 4.8
2018-Jun-13 19:14N 36°53' W 076°20'3 0.3
2018-Jun-13 10:25N 36°56' W 076°20'4 5.5
2018-Jun-13 09:45N 36°52' W 076°20'2 6.9
2018-Jun-13 09:29N 36°51' W 076°18'3 4.3
2018-Jun-13 08:52N 36°50' W 076°15'2 6.2
2018-Jun-13 08:30N 36°50' W 076°18'  

Dump ship's entire track history